Time;durP1;ratioP1;P1;durP2;ratioP2;P2;SDS_P1;SDS_P2;PMS_P1;PMS_P2;Temp;Humidity;BMP_temperature;BMP_pressure;BME280_temperature;BME280_humidity;BME280_pressure;Samples;Min_cycle;Max_cycle;Signal;HPM_P1;HPM_P2
2021/10/03 00:00:07;;;;;;;39.93;27.33;;;;;;;8.18;84.30;99206.93;2061181;86;21289;-80
2021/10/03 00:03:10;;;;;;;36.97;27.80;;;;;;;8.19;85.05;99204.38;2053226;86;21020;-81
2021/10/03 00:06:10;;;;;;;69.83;26.37;;;;;;;8.21;85.02;99200.09;2061153;86;20942;-80
2021/10/03 00:09:11;;;;;;;42.37;26.37;;;;;;;8.23;84.69;99203.61;2060762;85;20946;-80
2021/10/03 00:12:11;;;;;;;36.17;26.10;;;;;;;8.15;84.88;99208.15;2058187;86;21372;-80
2021/10/03 00:15:12;;;;;;;35.43;26.33;;;;;;;8.10;84.65;99196.74;2058316;86;20957;-80
2021/10/03 00:18:12;;;;;;;37.00;26.53;;;;;;;8.09;84.81;99196.28;2058140;86;20973;-79
2021/10/03 00:21:12;;;;;;;39.20;28.70;;;;;;;8.10;85.15;99195.02;2058491;86;21357;-79
2021/10/03 00:24:13;;;;;;;39.47;27.43;;;;;;;8.13;85.89;99191.20;2058506;86;20947;-80
2021/10/03 00:27:13;;;;;;;43.93;29.90;;;;;;;8.15;86.00;99193.84;2058364;86;20957;-80
2021/10/03 00:30:14;;;;;;;41.27;28.63;;;;;;;8.15;86.33;99202.53;2058399;86;20985;-80
2021/10/03 00:33:15;;;;;;;37.37;28.50;;;;;;;8.19;86.01;99207.39;2058264;86;21028;-80
2021/10/03 00:36:16;;;;;;;40.03;28.80;;;;;;;8.19;85.84;99211.29;2058352;86;21325;-80
2021/10/03 00:39:16;;;;;;;40.83;30.10;;;;;;;8.19;86.04;99210.88;2058184;86;20954;-79
2021/10/03 00:42:17;;;;;;;38.47;28.97;;;;;;;8.18;85.18;99219.52;2058119;86;21020;-79
2021/10/03 00:45:17;;;;;;;37.13;27.60;;;;;;;8.14;85.12;99215.48;2058144;86;20957;-79
2021/10/03 00:48:18;;;;;;;40.70;26.33;;;;;;;8.05;84.63;99212.63;2058384;86;21358;-80
2021/10/03 00:51:18;;;;;;;39.43;27.30;;;;;;;7.95;84.60;99213.68;2058565;86;20941;-80
2021/10/03 00:54:19;;;;;;;41.27;27.63;;;;;;;7.89;85.10;99214.81;2058506;86;21033;-80
2021/10/03 00:57:19;;;;;;;34.30;25.57;;;;;;;7.87;85.02;99217.78;2058629;86;20957;-79
2021/10/03 01:00:20;;;;;;;35.33;26.07;;;;;;;7.86;85.12;99217.73;2058604;86;21373;-79
2021/10/03 01:03:20;;;;;;;39.20;26.80;;;;;;;7.83;85.30;99213.75;2058296;86;21428;-79
2021/10/03 01:06:21;;;;;;;37.90;27.40;;;;;;;7.85;86.15;99202.98;2058462;86;21029;-80
2021/10/03 01:09:21;;;;;;;41.13;27.80;;;;;;;7.92;86.73;99210.11;2058761;86;21009;-79
2021/10/03 01:12:22;;;;;;;40.13;29.43;;;;;;;7.97;87.00;99203.33;2063277;86;21337;-80
2021/10/03 01:15:22;;;;;;;44.27;28.67;;;;;;;8.04;87.33;99198.75;2063503;85;20956;-80
2021/10/03 01:18:23;;;;;;;45.43;29.17;;;;;;;8.09;87.30;99200.18;2062704;85;21037;-81
2021/10/03 01:21:23;;;;;;;44.60;30.30;;;;;;;8.12;87.39;99198.97;2063076;86;20961;-79
2021/10/03 01:24:24;;;;;;;47.37;30.20;;;;;;;8.14;87.35;99191.66;2062577;85;20941;-79
2021/10/03 01:27:24;;;;;;;46.73;29.50;;;;;;;8.15;87.68;99185.63;2063649;86;20941;-80
2021/10/03 01:30:25;;;;;;;45.00;30.13;;;;;;;8.18;87.82;99185.70;2111229;84;21383;-80
2021/10/03 01:33:26;;;;;;;42.10;30.60;;;;;;;8.20;87.91;99185.33;2111124;84;21032;-81
2021/10/03 01:36:27;;;;;;;43.37;30.33;;;;;;;8.23;87.82;99185.41;2111596;84;21016;-79
2021/10/03 01:39:27;;;;;;;38.87;29.77;;;;;;;8.24;87.85;99189.77;2111592;84;20960;-79
2021/10/03 01:42:28;;;;;;;40.20;29.73;;;;;;;8.26;88.47;99180.28;2111592;84;20944;-80
2021/10/03 01:45:28;;;;;;;40.97;30.27;;;;;;;8.28;88.49;99167.33;2111626;84;20965;-80
2021/10/03 01:48:29;;;;;;;41.70;29.50;;;;;;;8.27;88.08;99171.64;2111563;84;20920;-80
2021/10/03 01:51:29;;;;;;;42.47;29.23;;;;;;;8.27;87.91;99163.84;2111277;84;20995;-80
2021/10/03 01:54:30;;;;;;;38.73;29.83;;;;;;;8.25;87.92;99158.14;2111361;84;20981;-81
2021/10/03 01:57:30;;;;;;;39.60;28.63;;;;;;;8.25;88.38;99160.32;2111202;84;20996;-80
2021/10/03 02:00:31;;;;;;;39.47;28.10;;;;;;;8.26;88.62;99156.88;2111248;84;20913;-80
2021/10/03 02:03:31;;;;;;;41.20;28.73;;;;;;;8.27;88.43;99159.94;2111190;84;20995;-80
2021/10/03 02:06:32;;;;;;;35.93;27.73;;;;;;;8.27;88.58;99152.14;2111506;84;20944;-80
2021/10/03 02:09:34;;;;;;;44.77;28.53;;;;;;;8.25;88.35;99152.52;2091303;84;20959;-80
2021/10/03 02:12:35;;;;;;;43.70;28.03;;;;;;;8.22;88.71;99151.14;2100281;84;21032;-80
2021/10/03 02:15:35;;;;;;;39.37;28.67;;;;;;;8.21;88.33;99153.28;2099951;85;20906;-80
2021/10/03 02:18:36;;;;;;;42.97;29.33;;;;;;;8.22;88.92;99150.27;2099876;85;20953;-80
2021/10/03 02:21:36;;;;;;;34.30;27.47;;;;;;;8.21;89.04;99146.78;2100072;85;20968;-80
2021/10/03 02:24:37;;;;;;;41.80;28.00;;;;;;;8.23;89.31;99142.50;2100136;85;20945;-80
2021/10/03 02:27:37;;;;;;;38.57;27.83;;;;;;;8.22;89.02;99140.73;2100185;85;21372;-80
2021/10/03 02:30:38;;;;;;;37.53;27.63;;;;;;;8.22;89.20;99140.73;2100513;85;20980;-80
2021/10/03 02:33:38;;;;;;;35.30;27.10;;;;;;;8.22;89.22;99137.26;2100045;85;21004;-79
2021/10/03 02:36:39;;;;;;;34.20;26.67;;;;;;;8.20;89.23;99137.64;2100050;85;20933;-81
2021/10/03 02:39:40;;;;;;;36.23;26.93;;;;;;;8.19;89.37;99131.98;2099941;85;20968;-80
2021/10/03 02:42:40;;;;;;;38.20;26.80;;;;;;;8.20;89.51;99141.12;2100136;85;21287;-80
2021/10/03 02:45:41;;;;;;;35.63;26.83;;;;;;;8.21;89.27;99139.40;2100284;85;20917;-80
2021/10/03 02:48:48;;;;;;;35.80;26.63;;;;;;;8.20;89.22;99141.12;2100197;85;20945;-81
2021/10/03 02:51:44;;;;;;;35.20;26.40;;;;;;;8.22;89.26;99138.56;2099837;84;21017;-80
2021/10/03 02:54:44;;;;;;;31.90;25.70;;;;;;;8.18;88.94;99128.92;2100165;85;20917;-79
2021/10/03 02:57:45;;;;;;;34.37;26.10;;;;;;;8.16;89.13;99121.08;2099826;85;21313;-80
2021/10/03 03:00:45;;;;;;;35.27;25.40;;;;;;;8.13;89.09;99121.42;2099759;85;20996;-80
2021/10/03 03:03:46;;;;;;;38.70;26.63;;;;;;;8.09;89.09;99114.38;2099721;85;21056;-80
2021/10/03 03:06:46;;;;;;;38.07;25.97;;;;;;;8.08;89.40;99110.02;2099600;85;20984;-81
2021/10/03 03:09:47;;;;;;;37.90;27.73;;;;;;;8.06;89.41;99109.98;2100094;85;20949;-81
2021/10/03 03:12:47;;;;;;;36.70;24.87;;;;;;;8.06;89.35;99111.70;2103696;84;21032;-81
2021/10/03 03:15:48;;;;;;;32.57;25.93;;;;;;;8.04;89.34;99110.36;2103821;84;20929;-81
2021/10/03 03:18:49;;;;;;;42.47;27.00;;;;;;;8.02;89.37;99124.16;2104260;84;20968;-81
2021/10/03 03:21:49;;;;;;;34.43;24.87;;;;;;;8.02;89.57;99123.74;2104150;85;20952;-81
2021/10/03 03:24:50;;;;;;;34.53;24.73;;;;;;;8.04;89.27;99124.66;2104590;85;20953;-81
2021/10/03 03:27:50;;;;;;;33.30;26.73;;;;;;;8.01;89.04;99119.80;2104053;84;20949;-81
2021/10/03 03:30:51;;;;;;;37.23;26.00;;;;;;;7.97;89.18;99122.32;2104141;85;20968;-81
2021/10/03 03:33:51;;;;;;;34.23;26.53;;;;;;;7.96;88.96;99117.08;2104434;85;21372;-80
2021/10/03 03:36:52;;;;;;;36.13;25.90;;;;;;;7.94;89.18;99116.16;2104350;84;20941;-79
2021/10/03 03:39:52;;;;;;;34.23;25.87;;;;;;;7.92;89.50;99117.42;2104624;84;20972;-81
2021/10/03 03:42:53;;;;;;;36.90;25.87;;;;;;;7.89;89.19;99120.36;2104459;84;20937;-81
2021/10/03 03:45:53;;;;;;;35.33;26.03;;;;;;;7.87;89.18;99124.63;2104340;84;20938;-81
2021/10/03 03:48:54;;;;;;;34.37;25.57;;;;;;;7.87;89.21;99124.63;2104515;84;20981;-81
2021/10/03 03:51:54;;;;;;;31.27;25.77;;;;;;;7.87;89.29;99128.53;2104356;85;20936;-80
2021/10/03 03:54:55;;;;;;;33.40;25.10;;;;;;;7.86;89.30;99133.27;2104714;84;20944;-81
2021/10/03 03:57:56;;;;;;;32.00;25.43;;;;;;;7.84;89.10;99133.23;2103890;85;21515;-81
2021/10/03 04:00:57;;;;;;;37.10;25.67;;;;;;;7.85;89.40;99136.29;2104308;84;20981;-81
2021/10/03 04:03:57;;;;;;;37.53;26.77;;;;;;;7.86;89.04;99135.87;2104377;84;21335;-81
2021/10/03 04:06:58;;;;;;;39.03;25.37;;;;;;;7.84;89.03;99131.93;2104498;84;20949;-81
2021/10/03 04:09:58;;;;;;;31.23;23.67;;;;;;;7.82;89.07;99140.10;2104980;84;20944;-81
2021/10/03 04:12:59;;;;;;;35.23;24.67;;;;;;;7.82;89.19;99141.83;2100225;84;20952;-81
2021/10/03 04:15:59;;;;;;;31.93;24.83;;;;;;;7.83;89.17;99138.38;2100051;85;20949;-81
2021/10/03 04:18:59;;;;;;;33.73;25.20;;;;;;;7.81;88.86;99136.16;2100215;85;20956;-81
2021/10/03 04:22:00;;;;;;;33.17;25.13;;;;;;;7.79;89.12;99132.19;2099854;85;21321;-81
2021/10/03 04:25:00;;;;;;;33.17;25.03;;;;;;;7.79;88.86;99135.20;2100061;85;20988;-80
2021/10/03 04:28:01;;;;;;;34.77;25.60;;;;;;;7.76;88.80;99136.42;2099612;85;20941;-82
2021/10/03 04:31:01;;;;;;;29.17;24.60;;;;;;;7.77;89.08;99135.17;2099471;85;21359;-82
2021/10/03 04:34:02;;;;;;;30.07;24.73;;;;;;;7.75;88.95;99129.05;2099178;85;20992;-82
2021/10/03 04:37:02;;;;;;;36.13;26.63;;;;;;;7.77;89.03;99132.98;2099387;85;20968;-82
2021/10/03 04:40:03;;;;;;;36.07;26.73;;;;;;;7.75;88.83;99135.55;2099668;85;20941;-81
2021/10/03 04:43:03;;;;;;;33.93;25.73;;;;;;;7.77;89.07;99132.98;2099822;85;20960;-81
2021/10/03 04:46:04;;;;;;;33.37;27.03;;;;;;;7.76;88.95;99136.42;2099762;85;20972;-81
2021/10/03 04:49:04;;;;;;;35.80;26.70;;;;;;;7.76;88.99;99138.60;2099619;85;21285;-81
2021/10/03 04:52:05;;;;;;;61.93;30.13;;;;;;;7.75;88.86;99133.36;2100047;85;21324;-79
2021/10/03 04:55:06;;;;;;;34.60;27.20;;;;;;;7.77;88.92;99134.28;2100348;85;20941;-80
2021/10/03 04:58:06;;;;;;;36.83;26.17;;;;;;;7.76;88.93;99123.02;2100180;85;20968;-80
2021/10/03 05:01:09;;;;;;;35.60;27.67;;;;;;;7.78;88.90;99126.95;2100231;85;20996;-81
2021/10/03 05:04:09;;;;;;;39.77;26.40;;;;;;;7.80;88.84;99129.17;2099926;85;21011;-81
2021/10/03 05:07:10;;;;;;;33.00;26.40;;;;;;;7.80;88.51;99116.18;2099867;85;20941;-80
2021/10/03 05:10:10;;;;;;;32.57;27.37;;;;;;;7.84;88.72;99105.94;2100254;85;20925;-80
2021/10/03 05:13:11;;;;;;;35.20;25.77;;;;;;;7.89;88.58;99104.77;2104301;84;21000;-80
2021/10/03 05:16:11;;;;;;;39.20;25.90;;;;;;;7.94;88.51;99114.44;2104756;85;20980;-82
2021/10/03 05:19:12;;;;;;;31.20;25.40;;;;;;;8.00;88.45;99118.92;2103800;84;20956;-79
2021/10/03 05:22:12;;;;;;;34.60;26.53;;;;;;;8.05;88.35;99123.82;2104230;84;20936;-80
2021/10/03 05:25:13;;;;;;;33.37;25.83;;;;;;;8.11;88.23;99113.58;2104412;84;20963;-81
2021/10/03 05:28:13;;;;;;;35.40;25.63;;;;;;;8.17;88.08;99121.53;2104518;84;20945;-81
2021/10/03 05:31:14;;;;;;;29.87;23.97;;;;;;;8.21;88.00;99118.17;2104484;84;20976;-79
2021/10/03 05:34:14;;;;;;;41.67;24.83;;;;;;;8.26;87.94;99116.57;2104417;85;21379;-80
2021/10/03 05:37:15;;;;;;;32.70;24.97;;;;;;;8.33;87.86;99115.42;2104867;84;20944;-79
2021/10/03 05:40:15;;;;;;;31.07;24.20;;;;;;;8.35;87.77;99109.87;2104306;84;20948;-80
2021/10/03 05:43:16;;;;;;;29.03;23.17;;;;;;;8.42;87.91;99113.08;2104519;84;20945;-79
2021/10/03 05:46:16;;;;;;;33.40;24.87;;;;;;;8.50;88.07;99112.84;2104431;84;21162;-79
2021/10/03 05:49:17;;;;;;;29.03;24.60;;;;;;;8.58;87.99;99112.61;2104016;85;20944;-80
2021/10/03 05:52:17;;;;;;;32.10;26.03;;;;;;;8.65;87.72;99117.11;2104796;84;21364;-80
2021/10/03 05:55:18;;;;;;;29.87;24.80;;;;;;;8.76;87.66;99118.28;2104247;84;20978;-80
2021/10/03 05:58:18;;;;;;;30.63;25.27;;;;;;;8.86;87.59;99115.05;2104632;84;20944;-80
2021/10/03 06:01:19;;;;;;;32.27;24.53;;;;;;;8.93;87.32;99116.94;2104504;85;20976;-81
2021/10/03 06:04:19;;;;;;;30.93;23.83;;;;;;;8.98;87.20;99117.47;2104305;84;20992;-80
2021/10/03 06:07:20;;;;;;;28.10;24.03;;;;;;;9.04;87.26;99115.00;2105086;85;20936;-80
2021/10/03 06:10:20;;;;;;;27.00;23.67;;;;;;;9.10;87.05;99115.13;2103835;84;20944;-79
2021/10/03 06:13:21;;;;;;;28.47;24.47;;;;;;;9.16;86.85;99113.55;2099821;84;21400;-80
2021/10/03 06:16:21;;;;;;;27.70;23.20;;;;;;;9.26;86.74;99108.11;2099089;85;20953;-80
2021/10/03 06:19:22;;;;;;;27.37;22.40;;;;;;;9.36;86.50;99111.36;2099238;85;21005;-80
2021/10/03 06:22:24;;;;;;;28.50;22.73;;;;;;;9.43;86.28;99110.64;2099357;85;20960;-80
2021/10/03 06:25:25;;;;;;;27.20;22.90;;;;;;;9.54;86.23;99116.09;2099770;85;20945;-79
2021/10/03 06:28:25;;;;;;;22.70;20.23;;;;;;;9.66;85.94;99118.07;2099983;85;20953;-80
2021/10/03 06:31:25;;;;;;;25.53;21.87;;;;;;;9.77;85.62;99119.16;2099368;85;21032;-80
2021/10/03 06:34:26;;;;;;;23.80;20.43;;;;;;;9.79;85.28;99113.55;2099366;84;21032;-79
2021/10/03 06:37:27;;;;;;;26.40;22.20;;;;;;;9.83;84.92;99104.94;2099627;85;21384;-80
2021/10/03 06:40:27;;;;;;;26.10;21.70;;;;;;;9.89;84.81;99108.53;2099807;85;20945;-79
2021/10/03 06:43:29;;;;;;;26.87;21.47;;;;;;;9.96;84.72;99109.95;2099876;85;20933;-80
2021/10/03 06:46:30;;;;;;;25.53;20.60;;;;;;;10.01;84.48;99103.09;2099899;85;21056;-81
2021/10/03 06:49:31;;;;;;;33.00;26.23;;;;;;;10.05;84.19;99097.95;2099873;85;20948;-80
2021/10/03 06:52:31;;;;;;;24.03;21.53;;;;;;;10.13;84.24;99105.92;2099844;85;20996;-79
2021/10/03 06:55:34;;;;;;;23.93;20.30;;;;;;;10.29;84.25;99111.89;2099927;85;20921;-80
2021/10/03 06:58:34;;;;;;;22.03;19.13;;;;;;;10.41;83.58;99117.77;2100048;85;20989;-80
2021/10/03 07:01:36;;;;;;;25.00;20.03;;;;;;;10.44;83.16;99111.30;2099064;85;20992;-80
2021/10/03 07:04:36;;;;;;;25.90;19.90;;;;;;;10.59;83.51;99100.23;2099869;85;21027;-80
2021/10/03 07:07:37;;;;;;;24.47;19.90;;;;;;;10.66;83.06;99103.39;2099627;85;20937;-80
2021/10/03 07:10:37;;;;;;;22.30;19.60;;;;;;;10.79;83.02;99104.90;2099759;85;20985;-80
2021/10/03 07:13:40;;;;;;;22.70;19.27;;;;;;;10.94;82.84;99109.47;2099605;85;21001;-80
2021/10/03 07:16:41;;;;;;;23.22;20.43;;;;;;;10.95;82.20;99110.34;2099946;85;20960;-79
2021/10/03 07:19:44;;;;;;;20.80;18.70;;;;;;;10.93;82.52;99106.84;2099838;85;21000;-80
2021/10/03 07:22:44;;;;;;;23.35;19.92;;;;;;;10.94;82.16;99100.33;2099723;85;21013;-80
2021/10/03 07:25:45;;;;;;;20.60;17.42;;;;;;;10.98;81.86;99105.17;2099186;85;20977;-79
2021/10/03 07:28:46;;;;;;;23.83;19.95;;;;;;;11.13;81.63;99098.85;2099526;85;20957;-79
2021/10/03 07:31:46;;;;;;;24.67;19.75;;;;;;;11.33;81.41;99107.87;2099508;85;21064;-79
2021/10/03 07:34:47;;;;;;;22.30;19.95;;;;;;;11.43;81.22;99108.86;2099625;85;21048;-79
2021/10/03 07:37:48;;;;;;;24.05;20.72;;;;;;;11.48;80.54;99112.41;2099831;85;20949;-80
2021/10/03 07:40:49;;;;;;;23.20;20.20;;;;;;;11.53;80.76;99114.65;2099520;85;21005;-80
2021/10/03 07:43:49;;;;;;;24.12;20.27;;;;;;;11.52;79.98;99114.63;2098774;85;20953;-80
2021/10/03 07:46:50;;;;;;;27.05;19.85;;;;;;;11.57;80.30;99112.95;2099519;85;20952;-80
2021/10/03 07:49:50;;;;;;;27.77;21.07;;;;;;;11.65;79.93;99111.30;2099297;85;21419;-79
2021/10/03 07:52:51;;;;;;;25.88;21.27;;;;;;;11.75;79.69;99104.89;2099411;85;21361;-79
2021/10/03 07:55:51;;;;;;;22.52;20.00;;;;;;;11.92;79.85;99102.92;2098851;85;20985;-79
2021/10/03 07:58:52;;;;;;;24.80;20.23;;;;;;;12.07;79.43;99102.64;2099877;85;20917;-79
2021/10/03 08:01:55;;;;;;;22.35;20.00;;;;;;;12.06;78.81;99104.81;2099810;85;20909;-79
2021/10/03 08:04:55;;;;;;;30.02;21.60;;;;;;;12.03;77.83;99104.78;2099169;85;21056;-79
2021/10/03 08:07:55;;;;;;;23.32;20.08;;;;;;;12.03;78.14;99103.48;2099605;85;20988;-79
2021/10/03 08:10:56;;;;;;;21.23;19.00;;;;;;;12.19;78.20;99105.84;2099499;85;20964;-80
2021/10/03 08:13:57;;;;;;;25.37;20.15;;;;;;;12.40;78.50;99104.73;2099574;83;21024;-80
2021/10/03 08:16:57;;;;;;;23.45;20.32;;;;;;;12.69;77.90;99098.41;2099655;85;20972;-80
2021/10/03 08:20:00;;;;;;;22.65;20.25;;;;;;;12.95;77.47;99100.33;2100169;85;20917;-80
2021/10/03 08:23:00;;;;;;;22.15;19.62;;;;;;;13.22;76.90;99104.49;2100250;85;20969;-81
2021/10/03 08:26:01;;;;;;;22.70;19.98;;;;;;;13.30;76.20;99100.59;2099747;85;21013;-79
2021/10/03 08:29:01;;;;;;;25.17;20.92;;;;;;;13.28;75.32;99095.34;2099791;85;21024;-79
2021/10/03 08:32:02;;;;;;;27.67;20.53;;;;;;;13.25;74.78;99096.64;2099942;85;21404;-80
2021/10/03 08:35:02;;;;;;;23.98;20.17;;;;;;;13.31;75.47;99100.61;2099380;85;21043;-80
2021/10/03 08:38:03;;;;;;;24.60;20.82;;;;;;;13.47;75.71;99096.74;2099806;85;20949;-79
2021/10/03 08:41:03;;;;;;;22.90;20.50;;;;;;;13.69;75.46;99098.58;2099647;85;20985;-80
2021/10/03 08:44:04;;;;;;;21.97;19.50;;;;;;;13.96;75.36;99105.25;2099451;85;21413;-80
2021/10/03 08:47:04;;;;;;;24.27;18.95;;;;;;;14.25;74.00;99097.86;2099468;85;21320;-79
2021/10/03 08:50:09;;;;;;;24.45;18.42;;;;;;;14.39;73.14;99091.30;2099576;85;20968;-78
2021/10/03 08:53:07;;;;;;;19.40;17.12;;;;;;;14.54;72.82;99095.28;2099027;84;21037;-80
2021/10/03 08:56:08;;;;;;;24.47;19.23;;;;;;;14.69;72.57;99090.45;2099534;85;20961;-79
2021/10/03 08:59:10;;;;;;;19.85;17.82;;;;;;;14.86;72.84;99093.53;2099723;85;20941;-79
2021/10/03 09:02:11;;;;;;;21.75;16.55;;;;;;;15.07;71.72;99089.98;2099524;85;20985;-79
2021/10/03 09:05:11;;;;;;;18.30;15.93;;;;;;;15.23;71.27;99092.14;2099303;85;21029;-78
2021/10/03 09:08:12;;;;;;;25.08;17.98;;;;;;;15.37;71.00;99094.72;2099655;85;21332;-79
2021/10/03 09:11:12;;;;;;;19.92;17.77;;;;;;;15.48;70.45;99087.67;2099511;85;21012;-78
2021/10/03 09:14:13;;;;;;;21.95;17.52;;;;;;;15.63;70.21;99084.16;2099316;83;20984;-79
2021/10/03 09:17:17;;;;;;;18.40;16.12;;;;;;;15.69;69.72;99084.13;2099567;85;20953;-80
2021/10/03 09:20:15;;;;;;;20.45;16.40;;;;;;;15.76;68.94;99082.78;2098562;85;21057;-78
2021/10/03 09:23:21;;;;;;;26.17;16.95;;;;;;;15.85;68.51;99082.73;2098938;85;20957;-79
2021/10/03 09:26:22;;;;;;;18.40;16.52;;;;;;;15.93;67.59;99077.42;2099496;85;21067;-79
2021/10/03 09:29:25;;;;;;;23.27;15.45;;;;;;;16.05;67.87;99075.15;2099656;85;21385;-79
2021/10/03 09:32:26;;;;;;;20.55;16.93;;;;;;;16.22;67.24;99074.59;2099573;85;20953;-78
2021/10/03 09:35:26;;;;;;;19.35;16.25;;;;;;;16.40;67.50;99063.91;2099494;85;20992;-80
2021/10/03 09:38:27;;;;;;;21.02;15.75;;;;;;;16.61;67.45;99060.26;2099633;85;20945;-80
2021/10/03 09:41:28;;;;;;;23.40;15.98;;;;;;;16.68;65.12;99064.62;2099429;85;20976;-79
2021/10/03 09:44:28;;;;;;;17.07;13.98;;;;;;;16.74;64.70;99059.29;2099634;85;20980;-78
2021/10/03 09:47:29;;;;;;;18.95;14.07;;;;;;;16.82;65.50;99052.62;2099452;85;20965;-79
2021/10/03 09:50:29;;;;;;;15.23;13.20;;;;;;;16.97;63.96;99051.59;2099303;85;20989;-79
2021/10/03 09:53:30;;;;;;;16.57;13.32;;;;;;;17.09;64.94;99041.78;2099184;85;20930;-79
2021/10/03 09:56:31;;;;;;;31.97;23.67;;;;;;;17.18;63.92;99035.53;2099318;85;20953;-79
2021/10/03 09:59:32;;;;;;;14.95;12.93;;;;;;;17.24;62.92;99027.54;2099336;85;21005;-80
2021/10/03 10:02:33;;;;;;;15.45;13.18;;;;;;;17.27;62.57;99023.55;2099165;85;21324;-79
2021/10/03 10:05:33;;;;;;;17.20;13.18;;;;;;;17.37;63.03;99024.34;2099650;85;21028;-78
2021/10/03 10:08:36;;;;;;;18.60;12.53;;;;;;;17.53;63.20;99021.93;2099720;85;20974;-78
2021/10/03 10:11:37;;;;;;;12.88;11.50;;;;;;;17.66;62.31;99023.95;2099808;85;21037;-79
2021/10/03 10:14:37;;;;;;;13.40;11.95;;;;;;;17.79;62.05;99022.92;2099951;84;20996;-79
2021/10/03 10:17:38;;;;;;;19.98;13.05;;;;;;;17.92;61.26;99016.56;2100372;85;20957;-78
2021/10/03 10:20:39;;;;;;;14.40;11.57;;;;;;;18.00;60.04;99020.41;2100231;85;20969;-80
2021/10/03 10:23:39;;;;;;;13.40;11.28;;;;;;;18.07;60.08;99024.70;2099881;85;21352;-81
2021/10/03 10:26:40;;;;;;;18.37;10.82;;;;;;;18.11;59.33;99021.98;2099776;85;21013;-80
2021/10/03 10:29:40;;;;;;;14.47;11.45;;;;;;;18.19;58.64;99017.03;2099846;85;20948;-79
2021/10/03 10:32:41;;;;;;;13.10;10.65;;;;;;;18.25;58.16;99022.25;2099685;85;20972;-79
2021/10/03 10:35:44;;;;;;;14.60;11.97;;;;;;;18.22;59.30;99020.53;2099854;85;20973;-79
2021/10/03 10:38:44;;;;;;;14.90;11.28;;;;;;;18.12;58.21;99014.94;2099840;84;21296;-79
2021/10/03 10:41:44;;;;;;;13.65;12.25;;;;;;;18.17;58.75;99013.09;2099887;85;20929;-78
2021/10/03 10:44:45;;;;;;;12.35;11.03;;;;;;;18.28;59.03;99011.18;2100151;85;20914;-78
2021/10/03 10:47:45;;;;;;;11.43;10.28;;;;;;;18.38;58.08;99006.61;2100024;85;20906;-79
2021/10/03 10:50:47;;;;;;;11.55;10.35;;;;;;;18.45;58.21;99000.33;2099857;85;21012;-80
2021/10/03 10:53:47;;;;;;;14.03;11.12;;;;;;;18.48;56.94;98999.40;2099924;85;20976;-80
2021/10/03 10:56:48;;;;;;;16.37;10.35;;;;;;;18.43;57.08;99004.31;2099698;85;20981;-80
2021/10/03 10:59:49;;;;;;;11.53;10.35;;;;;;;18.50;57.81;99001.56;2099975;85;21370;-79
2021/10/03 11:02:49;;;;;;;13.40;10.40;;;;;;;18.66;57.96;99004.39;2100090;85;20996;-78
2021/10/03 11:05:50;;;;;;;14.13;10.05;;;;;;;18.81;57.65;99000.59;2099727;85;21049;-79
2021/10/03 11:08:50;;;;;;;10.82;9.55;;;;;;;18.97;57.59;99000.72;2100084;85;20968;-80
2021/10/03 11:11:51;;;;;;;13.45;9.90;;;;;;;19.08;57.02;98995.67;2100217;84;21360;-80
2021/10/03 11:14:51;;;;;;;10.98;9.88;;;;;;;19.09;55.85;98993.90;2111115;84;21340;-79
2021/10/03 11:17:52;;;;;;;11.90;10.18;;;;;;;19.09;55.88;98986.83;2111710;84;20968;-79
2021/10/03 11:20:57;;;;;;;12.15;9.63;;;;;;;19.17;56.41;98989.32;2110819;84;20968;-77
2021/10/03 11:23:54;;;;;;;26.30;9.75;;;;;;;19.15;55.53;98982.31;2061699;86;20940;-79
2021/10/03 11:26:55;;;;;;;15.03;9.63;;;;;;;18.92;55.88;98990.23;2063060;86;21004;-80
2021/10/03 11:29:55;;;;;;;11.38;9.53;;;;;;;18.72;54.97;98977.84;2067887;86;20966;-80
2021/10/03 11:32:56;;;;;;;13.28;9.68;;;;;;;18.56;56.21;98985.14;2105315;85;20968;-79
2021/10/03 11:35:56;;;;;;;13.50;8.50;;;;;;;18.56;56.33;98986.92;2105352;84;21052;-80
2021/10/03 11:38:59;;;;;;;13.25;8.63;;;;;;;18.39;55.89;98984.58;2105468;84;21336;-79
2021/10/03 11:41:59;;;;;;;12.00;9.30;;;;;;;18.27;55.73;98981.69;2062989;86;21278;-80
2021/10/03 11:45:00;;;;;;;11.50;9.13;;;;;;;18.14;56.19;98980.13;2111624;84;20952;-79
2021/10/03 11:48:00;;;;;;;11.88;9.48;;;;;;;18.14;56.81;98973.06;2111049;84;20969;-80
2021/10/03 11:51:01;;;;;;;8.98;8.08;;;;;;;18.12;57.13;98976.62;2111153;84;21323;-80
2021/10/03 11:54:01;;;;;;;8.75;7.78;;;;;;;18.18;56.60;98979.17;2111576;84;20945;-81
2021/10/03 11:57:02;;;;;;;10.28;8.75;;;;;;;18.25;55.93;98971.59;2111504;84;20937;-79
2021/10/03 12:00:02;;;;;;;9.83;7.60;;;;;;;18.37;56.53;98969.20;2111475;84;20977;-80
2021/10/03 12:03:03;;;;;;;9.63;7.62;;;;;;;18.53;55.88;98964.50;2111591;84;21304;-80
2021/10/03 12:06:03;;;;;;;13.72;8.33;;;;;;;18.61;55.91;98965.23;2111095;84;21011;-79
2021/10/03 12:09:04;;;;;;;38.80;10.32;;;;;;;18.70;55.96;98950.55;2111305;84;20949;-81
2021/10/03 12:12:07;;;;;;;15.30;10.13;;;;;;;18.85;55.34;98948.94;2111443;84;20979;-79
2021/10/03 12:15:07;;;;;;;10.78;8.78;;;;;;;18.90;55.38;98953.68;2100486;84;20965;-80
2021/10/03 12:18:08;;;;;;;8.58;7.78;;;;;;;18.97;54.64;98947.81;2100177;84;20941;-80
2021/10/03 12:21:09;;;;;;;9.23;7.47;;;;;;;18.98;54.04;98942.49;2058780;86;21340;-80
2021/10/03 12:24:11;;;;;;;9.35;7.80;;;;;;;19.03;53.83;98941.95;2058959;86;20941;-81
2021/10/03 12:30:14;;;;;;;9.73;8.13;;;;;;;19.18;54.84;98933.30;2037739;87;21000;-78
2021/10/03 12:33:14;;;;;;;11.40;7.83;;;;;;;19.22;54.00;98926.59;2058913;86;20972;-80
2021/10/03 12:36:15;;;;;;;9.48;7.92;;;;;;;19.23;53.50;98926.13;2058444;86;21024;-81
2021/10/03 12:39:15;;;;;;;12.70;7.85;;;;;;;19.23;53.28;98922.16;2058668;86;20932;-80
2021/10/03 12:42:16;;;;;;;10.88;7.45;;;;;;;19.35;53.80;98919.25;2058718;86;21368;-80
2021/10/03 12:45:16;;;;;;;9.65;7.47;;;;;;;19.35;53.80;98919.25;2058717;86;20940;-79
2021/10/03 12:48:17;;;;;;;19.12;15.30;;;;;;;19.42;52.86;98914.23;2058879;86;20935;-79
2021/10/03 12:51:17;;;;;;;9.15;8.30;;;;;;;19.47;53.57;98911.48;2100069;85;20929;-79
2021/10/03 12:54:18;;;;;;;7.50;6.42;;;;;;;19.56;52.37;98918.80;2100615;84;20930;-79
2021/10/03 12:57:18;;;;;;;7.50;6.90;;;;;;;19.56;51.80;98918.80;2100281;85;20938;-79
2021/10/03 13:00:19;;;;;;;15.90;7.12;;;;;;;19.60;52.67;98922.23;2100134;84;21304;-80
2021/10/03 13:03:19;;;;;;;9.83;7.30;;;;;;;19.62;52.17;98914.67;2058611;86;20948;-79
2021/10/03 13:06:22;;;;;;;9.88;7.40;;;;;;;19.63;52.47;98921.72;2058547;86;21015;-79
2021/10/03 13:09:23;;;;;;;10.32;7.45;;;;;;;19.74;52.92;98928.08;2058439;86;20952;-79
2021/10/03 13:12:23;;;;;;;8.80;7.12;;;;;;;19.85;52.80;98921.20;2058225;86;21003;-79
2021/10/03 13:15:24;;;;;;;10.53;7.55;;;;;;;19.89;51.36;98911.81;2103974;84;20972;-79
2021/10/03 13:18:24;;;;;;;7.62;6.47;;;;;;;19.96;52.54;98913.44;2104823;85;20973;-79
2021/10/03 13:21:25;;;;;;;9.48;6.55;;;;;;;20.05;51.99;98912.34;2058721;86;20941;-79
2021/10/03 13:24:25;;;;;;;7.58;6.58;;;;;;;20.20;51.45;98912.41;2059046;86;20944;-79
2021/10/03 13:27:26;;;;;;;7.72;6.25;;;;;;;20.21;51.31;98907.06;2104695;84;20909;-79
2021/10/03 13:30:26;;;;;;;12.65;6.80;;;;;;;20.17;50.40;98908.51;2058466;86;20940;-79
2021/10/03 13:33:27;;;;;;;9.70;6.20;;;;;;;20.04;50.20;98902.65;2103666;84;20973;-79
2021/10/03 13:36:27;;;;;;;9.35;6.65;;;;;;;19.94;50.82;98907.31;2104204;84;21047;-79
2021/10/03 13:39:28;;;;;;;8.68;6.12;;;;;;;19.88;50.71;98892.86;2103979;84;20976;-78
2021/10/03 13:42:28;;;;;;;7.60;6.47;;;;;;;19.82;51.05;98890.81;2058433;86;21004;-78
2021/10/03 13:45:29;;;;;;;9.15;6.03;;;;;;;19.76;51.10;98893.61;2104194;84;20905;-79
2021/10/03 13:48:29;;;;;;;8.25;6.20;;;;;;;19.61;50.52;98883.81;2058524;86;20940;-80
2021/10/03 13:51:30;;;;;;;8.83;5.58;;;;;;;19.56;50.27;98883.05;2104453;84;21332;-79
2021/10/03 13:54:30;;;;;;;8.53;5.83;;;;;;;19.52;50.52;98881.38;2058838;86;21316;-80
2021/10/03 13:57:31;;;;;;;8.00;5.78;;;;;;;19.48;50.76;98877.03;2104079;84;20988;-79
2021/10/03 14:00:32;;;;;;;5.87;5.37;;;;;;;19.42;49.69;98874.53;2103670;84;20953;-80